Flight Track Log - Related Links

Times and Time Zones

All times are in EDT time to prevent confusion due to time zone crossing. See the AAL672 flight status page for this flight to view local times or setup timezone preferences in your user account.

Time Position Orientation Groundspeed Altitude Reporting Facility
EDT Latitude Longitude Course Direction KTS MPH feet Rate Location/Type
Thu 04:35:33 PM 18.3333 -64.9333 282° West 160 184 1,500  Level San Juan Center
Thu 04:36:34 PM 18.2833 -64.9333 180° South 230 265 3,600 2,579 Climbing San Juan Center
Thu 04:37:00 PM 18.2898 -65.2010 258° West  Level FlightAware Approximate
Thu 04:37:34 PM 18.2333 -65.0167 238° Southwest 290 334 6,700  Level San Juan Center
Thu 04:38:00 PM 18.2984 -65.3179 283° West  Level FlightAware Approximate
Thu 04:38:34 PM 18.2500 -65.1000 282° West 300 345 9,700  Level San Juan Center
Thu 04:39:00 PM 18.3236 -65.4344 282° West  Level FlightAware Approximate
Thu 04:39:35 PM 18.2833 -65.1833 293° West 340 391 11,800  Level San Juan Center
Thu 04:40:00 PM 18.3469 -65.5514 282° West  Level FlightAware Approximate
Thu 04:40:35 PM 18.3333 -65.2667 302° West 380 437 13,900  Level San Juan Center
Thu 04:41:35 PM 18.4000 -65.3667 305° West 390 449 16,400 2,281 Climbing San Juan Center
Thu 04:42:36 PM 18.4500 -65.4667 298° West 400 460 18,500 2,083 Climbing San Juan Center
Thu 04:43:36 PM 18.5167 -65.5667 305° West 420 483 20,600 2,050 Climbing San Juan Center
Thu 04:44:36 PM 18.6000 -65.6667 311° West 420 483 22,600 1,934 Climbing San Juan Center
Thu 04:45:37 PM 18.6667 -65.7667 305° West 440 506 24,500 1,785 Climbing San Juan Center
Thu 04:46:37 PM 18.7333 -65.8833 301° West 450 518 26,200 1,600 Climbing San Juan Center
Thu 04:47:37 PM 18.8167 -65.9833 311° West 460 529 27,700 1,438 Climbing San Juan Center
Thu 04:48:38 PM 18.9000 -66.1000 307° West 470 541 29,100 1,400 Climbing San Juan Center
Thu 04:49:37 PM 18.9667 -66.2167 301° West 480 552 30,500 1,450 Climbing San Juan Center
Thu 04:50:38 PM 19.0500 -66.3333 307° West 490 564 32,000 744 Climbing San Juan Center
Thu 04:51:38 PM 19.1333 -66.4500 307° West 490 564 32,000  Level San Juan Center
Thu 04:52:38 PM 19.2167 -66.5667 307° West 490 564 32,000  Level San Juan Center
Thu 04:53:39 PM 19.3000 -66.6833 307° West 480 552 32,000  Level San Juan Center
Thu 04:54:39 PM 19.3667 -66.7833 305° West 480 552 32,000  Level San Juan Center
Thu 04:55:39 PM 19.4500 -66.9167 304° West 480 552 32,000  Level San Juan Center
Thu 04:56:40 PM 19.5333 -67.0333 307° West 480 552 32,000  Level San Juan Center
Thu 04:57:40 PM 19.6167 -67.1500 307° West 490 564 32,000  Level San Juan Center
Thu 04:58:40 PM 19.6833 -67.2500 305° West 480 552 32,000  Level San Juan Center
Thu 04:59:41 PM 19.7500 -67.3667 301° West 460 529 32,000  Level San Juan Center
Thu 05:00:41 PM 19.8167 -67.4833 301° West 480 552 32,000  Level San Juan Center
Thu 05:01:41 PM 19.9000 -67.6000 307° West 480 552 32,000  Level San Juan Center
Thu 05:02:42 PM 19.9833 -67.7167 307° West 480 552 32,000  Level San Juan Center
Thu 05:03:42 PM 20.0500 -67.8333 301° West 480 552 32,000  Level San Juan Center
Thu 05:04:42 PM 20.1333 -67.9500 307° West 480 552 32,000  Level San Juan Center
Thu 05:05:36 PM 20.2078 -68.0753 302° West 480 552 32,000  Level Miami Center
Thu 05:06:36 PM 20.2833 -68.1961 304° West 480 552 32,000  Level Miami Center
Thu 05:07:36 PM 20.3464 -68.3203 298° West 485 558 32,000  Level Miami Center
Thu 05:08:36 PM 20.4114 -68.4464 299° West 485 558 32,000  Level Miami Center
Thu 05:09:36 PM 20.4725 -68.5753 297° West 485 558 32,000  Level Miami Center
Thu 05:10:36 PM 20.5375 -68.7039 298° West 485 558 32,000  Level Miami Center
Thu 05:11:36 PM 20.6025 -68.8303 299° West 490 564 32,000  Level Miami Center
Thu 05:12:36 PM 20.6633 -68.9594 297° West 490 564 32,000  Level Miami Center
Thu 05:13:36 PM 20.7258 -69.0864 298° West 490 564 32,000  Level Miami Center
Thu 05:14:36 PM 20.7867 -69.2181 296° West 490 564 32,000  Level Miami Center
Thu 05:15:36 PM 20.8511 -69.3431 299° West 490 564 32,000  Level Miami Center
Thu 05:16:36 PM 20.9133 -69.4703 298° West 490 564 32,000  Level Miami Center
Thu 05:17:36 PM 20.9758 -69.6000 297° West 485 558 32,000  Level Miami Center
Thu 05:18:36 PM 21.0422 -69.7275 299° West 485 558 32,000  Level Miami Center
Thu 05:19:36 PM 21.1003 -69.8553 296° West 485 558 32,000  Level Miami Center
Thu 05:20:36 PM 21.1664 -69.9831 299° West 479 551 32,000  Level Miami Center
Thu 05:21:36 PM 21.2283 -70.1111 297° West 479 551 32,000  Level Miami Center
Thu 05:22:36 PM 21.2881 -70.2369 297° West 479 551 32,000  Level Miami Center
Thu 05:23:36 PM 21.3428 -70.3478 298° West 479 551 32,000  Level Miami Center
Thu 05:24:36 PM 21.4092 -70.4894 297° West 484 557 32,000  Level Miami Center
Thu 05:25:36 PM 21.4706 -70.6156 298° West 478 550 32,000  Level Miami Center
Thu 05:26:36 PM 21.5319 -70.7375 298° West 478 550 32,000  Level Miami Center
Thu 05:27:36 PM 21.5911 -70.8642 297° West 478 550 32,000  Level Miami Center
Thu 05:28:36 PM 21.6483 -70.9956 295° West 484 557 32,000  Level Miami Center
Thu 05:29:36 PM 21.7075 -71.1244 296° West 484 557 32,000  Level Miami Center
Thu 05:30:36 PM 21.7686 -71.2536 297° West 484 557 32,000  Level Miami Center
Thu 05:31:36 PM 21.8294 -71.3786 298° West 484 557 32,000  Level Miami Center
Thu 05:32:36 PM 21.8903 -71.5056 297° West 484 557 32,000  Level Miami Center
Thu 05:33:36 PM 21.9489 -71.6331 296° West 484 557 32,000  Level Miami Center
Thu 05:34:36 PM 22.0075 -71.7606 296° West 478 550 32,000  Level Miami Center
Thu 05:35:36 PM 22.0658 -71.8858 297° West 478 550 32,000  Level Miami Center
Thu 05:36:36 PM 22.1203 -72.0158 294° West 478 550 32,000  Level Miami Center
Thu 05:37:36 PM 22.1806 -72.1458 297° West 478 550 32,000  Level Miami Center
Thu 05:38:36 PM 22.2389 -72.2717 297° West 478 550 32,000  Level Miami Center
Thu 05:39:36 PM 22.2950 -72.4042 295° West 478 550 32,000  Level Miami Center
Thu 05:40:36 PM 22.3569 -72.5322 298° West 478 550 32,000  Level Miami Center
Thu 05:41:36 PM 22.4150 -72.6606 296° West 478 550 32,000  Level Miami Center
Thu 05:42:36 PM 22.4747 -72.7889 297° West 478 550 32,000  Level Miami Center
Thu 05:43:36 PM 22.5325 -72.9175 296° West 478 550 32,000  Level Miami Center
Thu 05:44:36 PM 22.5881 -73.0464 295° West 478 550 32,000  Level Miami Center
Thu 05:45:36 PM 22.6347 -73.1619 294° West 478 550 32,000  Level Miami Center
Thu 05:46:36 PM 22.6964 -73.2883 298° West 478 550 32,000  Level Miami Center
Thu 05:47:36 PM 22.7536 -73.4175 296° West 478 550 32,000  Level Miami Center
Thu 05:48:36 PM 22.8108 -73.5464 296° West 478 550 32,000  Level Miami Center
Thu 05:49:36 PM 22.8700 -73.6758 296° West 478 550 32,000  Level Miami Center
Thu 05:50:36 PM 22.9269 -73.8050 296° West 478 550 32,000  Level Miami Center
Thu 05:51:36 PM 22.9858 -73.9344 296° West 478 550 32,000  Level Miami Center
Thu 05:52:36 PM 23.0383 -74.0597 295° West 478 550 32,000  Level Miami Center
Thu 05:53:36 PM 23.0992 -74.1894 297° West 478 550 32,000  Level Miami Center
Thu 05:54:48 PM 23.1539 -74.3217 294° West 478 550 32,000  Level Miami Center
Thu 05:55:48 PM 23.2211 -74.4761 295° West 478 550 32,000  Level Miami Center
Thu 05:56:48 PM 23.2794 -74.6064 296° West 483 556 32,000  Level Miami Center
Thu 05:57:48 PM 23.3336 -74.7342 295° West 478 550 32,000  Level Miami Center
Thu 05:58:48 PM 23.3897 -74.8647 295° West 478 550 32,000  Level Miami Center
Thu 05:59:48 PM 23.4456 -74.9906 296° West 473 544 32,000  Level Miami Center
Thu 06:00:48 PM 23.4994 -75.1189 295° West 473 544 32,000  Level Miami Center
Thu 06:01:48 PM 23.5553 -75.2472 295° West 468 539 32,000  Level Miami Center
Thu 06:02:48 PM 23.6003 -75.3486 296° West 468 539 32,000  Level Miami Center
Thu 06:03:48 PM 23.6644 -75.4978 295° West 462 532 32,000  Level Miami Center
Thu 06:04:48 PM 23.7197 -75.6264 295° West 462 532 32,000  Level Miami Center
Thu 06:05:48 PM 23.7731 -75.7531 295° West 462 532 32,000  Level Miami Center
Thu 06:06:48 PM 23.8242 -75.8822 293° West 462 532 32,000  Level Miami Center
Thu 06:07:48 PM 23.8772 -76.0114 294° West 462 532 32,000  Level Miami Center
Thu 06:08:48 PM 23.9322 -76.1358 296° West 457 526 32,000  Level Miami Center
Thu 06:09:48 PM 23.9786 -76.2631 292° West 457 526 32,000  Level Miami Center
Thu 06:10:48 PM 23.9917 -76.4039 276° West 457 526 32,000  Level Miami Center
Thu 06:11:48 PM 24.0214 -76.5403 283° West 457 526 32,000  Level Miami Center
Thu 06:12:48 PM 24.0758 -76.6678 295° West 457 526 32,000  Level Miami Center
Thu 06:13:48 PM 24.1344 -76.7997 296° West 467 537 32,000  Level Miami Center
Thu 06:14:48 PM 24.1889 -76.9250 295° West 467 537 32,000  Level Miami Center
Thu 06:15:48 PM 24.2453 -77.0525 296° West 460 529 32,000  Level Miami Center
Thu 06:16:48 PM 24.3056 -77.1942 295° West 465 535 32,000  Level Miami Center
Thu 06:17:48 PM 24.3636 -77.3219 297° West 465 535 32,000  Level Miami Center
Thu 06:18:48 PM 24.4175 -77.4500 295° West 465 535 32,000  Level Miami Center
Thu 06:19:48 PM 24.4736 -77.5781 296° West 465 535 32,000  Level Miami Center
Thu 06:20:48 PM 24.5314 -77.7042 297° West 465 535 32,000  Level Miami Center
Thu 06:21:48 PM 24.5892 -77.8300 297° West 465 535 32,000  Level Miami Center
Thu 06:22:48 PM 24.6447 -77.9586 295° West 465 535 32,000  Level Miami Center
Thu 06:23:48 PM 24.7022 -78.0825 297° West 465 535 32,000  Level Miami Center
Thu 06:24:48 PM 24.7597 -78.2136 296° West 465 535 32,000  Level Miami Center
Thu 06:25:48 PM 24.8128 -78.3403 295° West 465 535 32,000 -100 Level Miami Center
Thu 06:26:48 PM 24.8700 -78.4692 296° West 465 535 31,800 -1,050 Descending Miami Center
Thu 06:27:48 PM 24.9228 -78.6003 294° West 465 535 29,900 -1,750 Descending Miami Center
Thu 06:28:48 PM 24.9797 -78.7272 296° West 465 535 28,300 -1,850 Descending Miami Center
Thu 06:29:48 PM 25.0325 -78.8542 295° West 460 529 26,200 -2,050 Descending Miami Center
Thu 06:30:48 PM 25.0850 -78.9767 295° West 454 522 24,200 -2,100 Descending Miami Center
Thu 06:31:48 PM 25.1356 -79.0922 296° West 437 503 22,000 -2,300 Descending Miami Center
Thu 06:32:48 PM 25.1819 -79.2081 294° West 425 489 19,600 -2,250 Descending Miami Center
Thu 06:33:48 PM 25.2281 -79.3214 294° West 415 478 17,500 -2,019 Descending Miami Center
Thu 06:34:32 PM 25.2600 -79.4069 292° West 394 453 16,100 -2,129 Descending Miami Center
Thu 06:35:52 PM 25.3119 -79.5344 294° West 340 391 13,100 -1,809 Descending Miami Center
Thu 06:36:48 PM 25.3481 -79.6181 296° West 348 400 12,000 -569 Descending Miami Center
Thu 06:37:48 PM 25.3861 -79.7108 294° West 336 387 12,000 -50 Level Miami Center
Thu 06:38:48 PM 25.4386 -79.7950 305° West 331 381 11,900 -800 Descending Miami Center
Thu 06:39:48 PM 25.4914 -79.8769 306° West 336 387 10,400 -950 Descending Miami Center
Thu 06:40:48 PM 25.5442 -79.9564 306° West 336 387 10,000 -250 Descending Miami Center
Thu 06:41:48 PM 25.5947 -80.0339 306° West 324 373 9,900 -750 Descending Miami Center
Thu 06:42:48 PM 25.6369 -80.1064 303° West 304 350 8,500 -950 Descending Miami Center
Thu 06:43:48 PM 25.6456 -80.1872 277° West 272 313 8,000 -1,114 Descending Miami Center
Thu 06:45:08 PM 25.6497 -80.2842 273° West 227 261 5,900 -1,702 Descending Miami Center
Thu 06:46:09 PM 25.6647 -80.3514 284° West 219 252 4,000 -1,475 Descending Miami Center
Thu 06:47:10 PM 25.7011 -80.4056 307° West 212 244 2,900 -1,082 Descending Miami Center
Thu 06:48:11 PM 25.7572 -80.4094 356° North 201 231 1,800 -836 Descending Miami Center
Thu 06:49:12 PM 25.7811 -80.3778 50° Northeast 127 146 1,200 -639 Descending Miami Center
Thu 06:50:13 PM 25.7822 -80.3339 88° East 141 162 500 -689 Descending Miami Center

Login

Don't have an account? Register now (free) for customized features, flight alerts, and more!